sensor_id;sensor_type;location;lat;lon;timestamp;P1;durP1;ratioP1;P2;durP2;ratioP2
19842;SDS011;10082;51.038;6.992;2022-12-29T00:02:00;1.63;;;1.25;;
19842;SDS011;10082;51.038;6.992;2022-12-29T00:04:29;1.83;;;1.60;;
19842;SDS011;10082;51.038;6.992;2022-12-29T00:06:56;1.40;;;1.30;;
19842;SDS011;10082;51.038;6.992;2022-12-29T00:09:25;1.58;;;1.48;;
19842;SDS011;10082;51.038;6.992;2022-12-29T00:11:52;1.08;;;1.05;;
19842;SDS011;10082;51.038;6.992;2022-12-29T00:14:19;1.42;;;1.30;;
19842;SDS011;10082;51.038;6.992;2022-12-29T00:17:04;1.52;;;1.30;;
19842;SDS011;10082;51.038;6.992;2022-12-29T00:19:33;1.20;;;1.10;;
19842;SDS011;10082;51.038;6.992;2022-12-29T00:22:17;2.13;;;1.27;;
19842;SDS011;10082;51.038;6.992;2022-12-29T00:25:01;1.60;;;1.23;;
19842;SDS011;10082;51.038;6.992;2022-12-29T00:27:46;2.97;;;1.13;;
19842;SDS011;10082;51.038;6.992;2022-12-29T00:30:30;1.52;;;1.00;;
19842;SDS011;10082;51.038;6.992;2022-12-29T00:33:15;1.00;;;1.00;;
19842;SDS011;10082;51.038;6.992;2022-12-29T00:36:03;1.15;;;1.02;;
19842;SDS011;10082;51.038;6.992;2022-12-29T00:38:37;0.80;;;0.80;;
19842;SDS011;10082;51.038;6.992;2022-12-29T00:41:25;0.70;;;0.70;;
19842;SDS011;10082;51.038;6.992;2022-12-29T00:44:10;0.70;;;0.70;;
19842;SDS011;10082;51.038;6.992;2022-12-29T00:46:39;0.85;;;0.70;;
19842;SDS011;10082;51.038;6.992;2022-12-29T00:49:08;0.80;;;0.70;;
19842;SDS011;10082;51.038;6.992;2022-12-29T00:51:55;0.80;;;0.80;;
19842;SDS011;10082;51.038;6.992;2022-12-29T00:54:24;0.70;;;0.70;;
19842;SDS011;10082;51.038;6.992;2022-12-29T00:56:51;0.80;;;0.80;;
19842;SDS011;10082;51.038;6.992;2022-12-29T00:59:19;1.15;;;0.60;;
19842;SDS011;10082;51.038;6.992;2022-12-29T01:01:49;1.60;;;0.70;;
19842;SDS011;10082;51.038;6.992;2022-12-29T01:04:16;1.52;;;0.70;;
19842;SDS011;10082;51.038;6.992;2022-12-29T01:06:44;0.60;;;0.60;;
19842;SDS011;10082;51.038;6.992;2022-12-29T01:09:12;1.15;;;0.70;;
19842;SDS011;10082;51.038;6.992;2022-12-29T01:11:57;1.48;;;0.70;;
19842;SDS011;10082;51.038;6.992;2022-12-29T01:14:24;1.20;;;0.70;;
19842;SDS011;10082;51.038;6.992;2022-12-29T01:16:52;1.00;;;1.00;;
19842;SDS011;10082;51.038;6.992;2022-12-29T01:19:20;0.77;;;0.77;;
19842;SDS011;10082;51.038;6.992;2022-12-29T01:21:48;0.63;;;0.63;;
19842;SDS011;10082;51.038;6.992;2022-12-29T01:24:17;0.65;;;0.65;;
19842;SDS011;10082;51.038;6.992;2022-12-29T01:26:46;1.55;;;0.90;;
19842;SDS011;10082;51.038;6.992;2022-12-29T01:29:15;0.68;;;0.68;;
19842;SDS011;10082;51.038;6.992;2022-12-29T01:31:44;1.60;;;0.70;;
19842;SDS011;10082;51.038;6.992;2022-12-29T01:34:11;0.85;;;0.60;;
19842;SDS011;10082;51.038;6.992;2022-12-29T01:36:38;0.65;;;0.60;;
19842;SDS011;10082;51.038;6.992;2022-12-29T01:39:05;0.55;;;0.50;;
19842;SDS011;10082;51.038;6.992;2022-12-29T01:41:34;1.20;;;0.40;;
19842;SDS011;10082;51.038;6.992;2022-12-29T01:44:01;0.40;;;0.40;;
19842;SDS011;10082;51.038;6.992;2022-12-29T01:46:30;0.65;;;0.40;;
19842;SDS011;10082;51.038;6.992;2022-12-29T01:49:02;0.35;;;0.35;;
19842;SDS011;10082;51.038;6.992;2022-12-29T01:51:38;0.30;;;0.30;;
19842;SDS011;10082;51.038;6.992;2022-12-29T01:54:09;0.30;;;0.30;;
19842;SDS011;10082;51.038;6.992;2022-12-29T01:56:43;0.40;;;0.40;;
19842;SDS011;10082;51.038;6.992;2022-12-29T01:59:12;1.15;;;0.50;;
19842;SDS011;10082;51.038;6.992;2022-12-29T02:01:45;0.55;;;0.50;;
19842;SDS011;10082;51.038;6.992;2022-12-29T02:04:12;0.75;;;0.60;;
19842;SDS011;10082;51.038;6.992;2022-12-29T02:06:41;0.73;;;0.50;;
19842;SDS011;10082;51.038;6.992;2022-12-29T02:09:12;0.63;;;0.50;;
19842;SDS011;10082;51.038;6.992;2022-12-29T02:11:39;1.30;;;0.52;;
19842;SDS011;10082;51.038;6.992;2022-12-29T02:14:09;0.40;;;0.40;;
19842;SDS011;10082;51.038;6.992;2022-12-29T02:16:40;1.27;;;0.60;;
19842;SDS011;10082;51.038;6.992;2022-12-29T02:19:29;0.40;;;0.40;;
19842;SDS011;10082;51.038;6.992;2022-12-29T02:22:18;1.73;;;0.60;;
19842;SDS011;10082;51.038;6.992;2022-12-29T02:28:03;0.60;;;0.60;;
19842;SDS011;10082;51.038;6.992;2022-12-29T02:30:59;1.23;;;0.80;;
19842;SDS011;10082;51.038;6.992;2022-12-29T02:33:37;1.38;;;0.57;;
19842;SDS011;10082;51.038;6.992;2022-12-29T02:36:13;2.25;;;0.95;;
19842;SDS011;10082;51.038;6.992;2022-12-29T02:38:48;0.70;;;0.63;;
19842;SDS011;10082;51.038;6.992;2022-12-29T02:41:26;0.50;;;0.50;;
19842;SDS011;10082;51.038;6.992;2022-12-29T02:43:59;0.50;;;0.50;;
19842;SDS011;10082;51.038;6.992;2022-12-29T02:46:34;0.60;;;0.60;;
19842;SDS011;10082;51.038;6.992;2022-12-29T02:49:06;0.85;;;0.70;;
19842;SDS011;10082;51.038;6.992;2022-12-29T02:51:44;0.93;;;0.73;;
19842;SDS011;10082;51.038;6.992;2022-12-29T02:54:17;1.15;;;0.70;;
19842;SDS011;10082;51.038;6.992;2022-12-29T02:57:14;0.80;;;0.80;;
19842;SDS011;10082;51.038;6.992;2022-12-29T02:59:55;1.55;;;0.88;;
19842;SDS011;10082;51.038;6.992;2022-12-29T03:02:37;1.02;;;0.60;;
19842;SDS011;10082;51.038;6.992;2022-12-29T03:05:17;1.05;;;0.70;;
19842;SDS011;10082;51.038;6.992;2022-12-29T03:07:57;1.30;;;0.73;;
19842;SDS011;10082;51.038;6.992;2022-12-29T03:10:35;1.02;;;0.80;;
19842;SDS011;10082;51.038;6.992;2022-12-29T03:13:11;0.75;;;0.60;;
19842;SDS011;10082;51.038;6.992;2022-12-29T03:16:04;0.60;;;0.60;;
19842;SDS011;10082;51.038;6.992;2022-12-29T03:18:44;0.77;;;0.60;;
19842;SDS011;10082;51.038;6.992;2022-12-29T03:21:19;0.95;;;0.70;;
19842;SDS011;10082;51.038;6.992;2022-12-29T03:24:16;1.38;;;0.60;;
19842;SDS011;10082;51.038;6.992;2022-12-29T03:26:46;0.73;;;0.60;;
19842;SDS011;10082;51.038;6.992;2022-12-29T03:29:17;0.65;;;0.50;;
19842;SDS011;10082;51.038;6.992;2022-12-29T03:31:47;0.60;;;0.50;;
19842;SDS011;10082;51.038;6.992;2022-12-29T03:34:18;0.95;;;0.60;;
19842;SDS011;10082;51.038;6.992;2022-12-29T03:36:47;0.40;;;0.40;;
19842;SDS011;10082;51.038;6.992;2022-12-29T03:39:20;0.32;;;0.30;;
19842;SDS011;10082;51.038;6.992;2022-12-29T03:41:50;0.50;;;0.50;;
19842;SDS011;10082;51.038;6.992;2022-12-29T03:44:30;0.52;;;0.43;;
19842;SDS011;10082;51.038;6.992;2022-12-29T03:46:59;0.50;;;0.50;;
19842;SDS011;10082;51.038;6.992;2022-12-29T03:49:28;0.40;;;0.40;;
19842;SDS011;10082;51.038;6.992;2022-12-29T03:51:55;0.47;;;0.45;;
19842;SDS011;10082;51.038;6.992;2022-12-29T03:54:23;1.20;;;0.60;;
19842;SDS011;10082;51.038;6.992;2022-12-29T03:56:52;1.15;;;0.40;;
19842;SDS011;10082;51.038;6.992;2022-12-29T03:59:30;0.43;;;0.43;;
19842;SDS011;10082;51.038;6.992;2022-12-29T04:01:57;1.23;;;0.63;;
19842;SDS011;10082;51.038;6.992;2022-12-29T04:04:24;0.70;;;0.70;;
19842;SDS011;10082;51.038;6.992;2022-12-29T04:06:52;0.80;;;0.80;;
19842;SDS011;10082;51.038;6.992;2022-12-29T04:09:19;0.98;;;0.80;;
19842;SDS011;10082;51.038;6.992;2022-12-29T04:11:48;0.90;;;0.90;;
19842;SDS011;10082;51.038;6.992;2022-12-29T04:14:15;0.98;;;0.80;;
19842;SDS011;10082;51.038;6.992;2022-12-29T04:16:43;0.65;;;0.65;;
19842;SDS011;10082;51.038;6.992;2022-12-29T04:19:10;0.60;;;0.60;;
19842;SDS011;10082;51.038;6.992;2022-12-29T04:21:37;0.80;;;0.60;;
19842;SDS011;10082;51.038;6.992;2022-12-29T04:26:39;0.50;;;0.50;;
19842;SDS011;10082;51.038;6.992;2022-12-29T04:29:30;0.57;;;0.50;;
19842;SDS011;10082;51.038;6.992;2022-12-29T04:32:06;0.73;;;0.70;;
19842;SDS011;10082;51.038;6.992;2022-12-29T04:34:38;0.70;;;0.60;;
19842;SDS011;10082;51.038;6.992;2022-12-29T04:37:05;0.70;;;0.70;;
19842;SDS011;10082;51.038;6.992;2022-12-29T04:39:33;0.85;;;0.60;;
19842;SDS011;10082;51.038;6.992;2022-12-29T04:42:01;1.55;;;0.75;;
19842;SDS011;10082;51.038;6.992;2022-12-29T04:44:28;1.27;;;0.95;;
19842;SDS011;10082;51.038;6.992;2022-12-29T04:47:29;1.10;;;0.88;;
19842;SDS011;10082;51.038;6.992;2022-12-29T04:50:06;0.95;;;0.80;;
19842;SDS011;10082;51.038;6.992;2022-12-29T04:52:40;0.93;;;0.73;;
19842;SDS011;10082;51.038;6.992;2022-12-29T04:55:11;1.42;;;1.10;;
19842;SDS011;10082;51.038;6.992;2022-12-29T04:57:39;1.42;;;0.98;;
19842;SDS011;10082;51.038;6.992;2022-12-29T05:00:08;1.30;;;1.05;;
19842;SDS011;10082;51.038;6.992;2022-12-29T05:02:36;2.92;;;1.20;;
19842;SDS011;10082;51.038;6.992;2022-12-29T05:05:03;3.00;;;1.38;;
19842;SDS011;10082;51.038;6.992;2022-12-29T05:07:33;1.50;;;1.20;;
19842;SDS011;10082;51.038;6.992;2022-12-29T05:10:00;1.30;;;1.20;;
19842;SDS011;10082;51.038;6.992;2022-12-29T05:12:31;1.85;;;1.10;;
19842;SDS011;10082;51.038;6.992;2022-12-29T05:15:00;1.27;;;0.80;;
19842;SDS011;10082;51.038;6.992;2022-12-29T05:17:28;0.70;;;0.70;;
19842;SDS011;10082;51.038;6.992;2022-12-29T05:19:55;1.35;;;0.80;;
19842;SDS011;10082;51.038;6.992;2022-12-29T05:22:23;0.80;;;0.80;;
19842;SDS011;10082;51.038;6.992;2022-12-29T05:24:51;0.70;;;0.70;;
19842;SDS011;10082;51.038;6.992;2022-12-29T05:27:18;0.60;;;0.60;;
19842;SDS011;10082;51.038;6.992;2022-12-29T05:29:52;1.15;;;0.73;;
19842;SDS011;10082;51.038;6.992;2022-12-29T05:32:20;1.00;;;0.70;;
19842;SDS011;10082;51.038;6.992;2022-12-29T05:34:46;0.77;;;0.60;;
19842;SDS011;10082;51.038;6.992;2022-12-29T05:37:13;1.80;;;0.65;;
19842;SDS011;10082;51.038;6.992;2022-12-29T05:39:41;0.80;;;0.50;;
19842;SDS011;10082;51.038;6.992;2022-12-29T05:42:08;1.02;;;0.75;;
19842;SDS011;10082;51.038;6.992;2022-12-29T05:44:47;1.02;;;0.85;;
19842;SDS011;10082;51.038;6.992;2022-12-29T05:47:45;1.25;;;0.50;;
19842;SDS011;10082;51.038;6.992;2022-12-29T05:50:27;0.60;;;0.40;;
19842;SDS011;10082;51.038;6.992;2022-12-29T05:53:14;0.88;;;0.50;;
19842;SDS011;10082;51.038;6.992;2022-12-29T05:55:42;0.73;;;0.63;;
19842;SDS011;10082;51.038;6.992;2022-12-29T05:58:10;0.43;;;0.40;;
19842;SDS011;10082;51.038;6.992;2022-12-29T06:00:37;1.23;;;0.60;;
19842;SDS011;10082;51.038;6.992;2022-12-29T06:03:06;1.88;;;0.80;;
19842;SDS011;10082;51.038;6.992;2022-12-29T06:05:33;1.60;;;0.73;;
19842;SDS011;10082;51.038;6.992;2022-12-29T06:08:00;2.35;;;1.00;;
19842;SDS011;10082;51.038;6.992;2022-12-29T06:10:27;1.13;;;0.77;;
19842;SDS011;10082;51.038;6.992;2022-12-29T06:13:01;3.78;;;0.82;;
19842;SDS011;10082;51.038;6.992;2022-12-29T06:15:30;2.33;;;0.70;;
19842;SDS011;10082;51.038;6.992;2022-12-29T06:17:57;1.48;;;0.75;;
19842;SDS011;10082;51.038;6.992;2022-12-29T06:20:26;1.27;;;0.80;;
19842;SDS011;10082;51.038;6.992;2022-12-29T06:22:54;2.28;;;1.73;;
19842;SDS011;10082;51.038;6.992;2022-12-29T06:25:22;1.52;;;0.90;;
19842;SDS011;10082;51.038;6.992;2022-12-29T06:27:49;0.98;;;0.55;;
19842;SDS011;10082;51.038;6.992;2022-12-29T06:30:16;1.92;;;0.50;;
19842;SDS011;10082;51.038;6.992;2022-12-29T06:32:44;1.67;;;0.65;;
19842;SDS011;10082;51.038;6.992;2022-12-29T06:35:11;2.33;;;0.85;;
19842;SDS011;10082;51.038;6.992;2022-12-29T06:37:45;1.25;;;0.70;;
19842;SDS011;10082;51.038;6.992;2022-12-29T06:40:12;1.52;;;0.98;;
19842;SDS011;10082;51.038;6.992;2022-12-29T06:43:03;0.80;;;0.55;;
19842;SDS011;10082;51.038;6.992;2022-12-29T06:45:55;1.50;;;0.80;;
19842;SDS011;10082;51.038;6.992;2022-12-29T06:48:22;2.50;;;1.70;;
19842;SDS011;10082;51.038;6.992;2022-12-29T06:50:49;1.00;;;0.60;;
19842;SDS011;10082;51.038;6.992;2022-12-29T06:53:17;1.02;;;0.70;;
19842;SDS011;10082;51.038;6.992;2022-12-29T06:55:45;0.93;;;0.57;;
19842;SDS011;10082;51.038;6.992;2022-12-29T06:58:12;1.08;;;0.70;;
19842;SDS011;10082;51.038;6.992;2022-12-29T07:00:39;1.35;;;0.88;;
19842;SDS011;10082;51.038;6.992;2022-12-29T07:03:06;1.58;;;0.80;;
19842;SDS011;10082;51.038;6.992;2022-12-29T07:05:33;1.75;;;1.65;;
19842;SDS011;10082;51.038;6.992;2022-12-29T07:08:00;1.92;;;1.33;;
19842;SDS011;10082;51.038;6.992;2022-12-29T07:10:28;1.27;;;0.50;;
19842;SDS011;10082;51.038;6.992;2022-12-29T07:12:56;1.48;;;1.05;;
19842;SDS011;10082;51.038;6.992;2022-12-29T07:15:23;0.88;;;0.60;;
19842;SDS011;10082;51.038;6.992;2022-12-29T07:17:50;1.45;;;0.70;;
19842;SDS011;10082;51.038;6.992;2022-12-29T07:20:17;1.30;;;0.60;;
19842;SDS011;10082;51.038;6.992;2022-12-29T07:22:49;1.95;;;0.70;;
19842;SDS011;10082;51.038;6.992;2022-12-29T07:25:16;1.17;;;0.63;;
19842;SDS011;10082;51.038;6.992;2022-12-29T07:27:45;0.75;;;0.50;;
19842;SDS011;10082;51.038;6.992;2022-12-29T07:30:12;1.35;;;0.90;;
19842;SDS011;10082;51.038;6.992;2022-12-29T07:32:39;2.22;;;1.08;;
19842;SDS011;10082;51.038;6.992;2022-12-29T07:35:06;1.35;;;0.55;;
19842;SDS011;10082;51.038;6.992;2022-12-29T07:37:34;1.77;;;0.93;;
19842;SDS011;10082;51.038;6.992;2022-12-29T07:40:00;1.70;;;0.70;;
19842;SDS011;10082;51.038;6.992;2022-12-29T07:42:28;1.05;;;0.80;;
19842;SDS011;10082;51.038;6.992;2022-12-29T07:44:59;0.70;;;0.50;;
19842;SDS011;10082;51.038;6.992;2022-12-29T07:47:32;1.08;;;0.65;;
19842;SDS011;10082;51.038;6.992;2022-12-29T07:49:59;1.30;;;0.68;;
19842;SDS011;10082;51.038;6.992;2022-12-29T07:52:26;2.28;;;0.70;;
19842;SDS011;10082;51.038;6.992;2022-12-29T07:54:54;1.52;;;0.73;;
19842;SDS011;10082;51.038;6.992;2022-12-29T07:57:21;1.90;;;0.63;;
19842;SDS011;10082;51.038;6.992;2022-12-29T07:59:48;2.15;;;0.82;;
19842;SDS011;10082;51.038;6.992;2022-12-29T08:02:17;4.03;;;0.80;;
19842;SDS011;10082;51.038;6.992;2022-12-29T08:04:44;1.33;;;0.70;;
19842;SDS011;10082;51.038;6.992;2022-12-29T08:07:11;1.35;;;0.60;;
19842;SDS011;10082;51.038;6.992;2022-12-29T08:09:38;1.40;;;0.77;;
19842;SDS011;10082;51.038;6.992;2022-12-29T08:12:05;2.35;;;0.75;;
19842;SDS011;10082;51.038;6.992;2022-12-29T08:14:35;3.15;;;0.80;;
19842;SDS011;10082;51.038;6.992;2022-12-29T08:17:02;1.65;;;0.70;;
19842;SDS011;10082;51.038;6.992;2022-12-29T08:19:30;2.28;;;0.73;;
19842;SDS011;10082;51.038;6.992;2022-12-29T08:21:57;1.77;;;0.90;;
19842;SDS011;10082;51.038;6.992;2022-12-29T08:24:24;3.55;;;0.98;;
19842;SDS011;10082;51.038;6.992;2022-12-29T08:26:51;2.85;;;1.15;;
19842;SDS011;10082;51.038;6.992;2022-12-29T08:29:18;1.35;;;1.00;;
19842;SDS011;10082;51.038;6.992;2022-12-29T08:31:46;2.20;;;0.90;;
19842;SDS011;10082;51.038;6.992;2022-12-29T08:34:13;2.25;;;1.00;;
19842;SDS011;10082;51.038;6.992;2022-12-29T08:36:42;1.85;;;0.98;;
19842;SDS011;10082;51.038;6.992;2022-12-29T08:39:09;3.72;;;1.10;;
19842;SDS011;10082;51.038;6.992;2022-12-29T08:41:36;2.72;;;1.23;;
19842;SDS011;10082;51.038;6.992;2022-12-29T08:44:03;2.05;;;0.80;;
19842;SDS011;10082;51.038;6.992;2022-12-29T08:46:30;3.67;;;1.10;;
19842;SDS011;10082;51.038;6.992;2022-12-29T08:48:57;2.97;;;0.90;;
19842;SDS011;10082;51.038;6.992;2022-12-29T08:51:24;4.75;;;1.05;;
19842;SDS011;10082;51.038;6.992;2022-12-29T08:53:53;3.00;;;1.10;;
19842;SDS011;10082;51.038;6.992;2022-12-29T08:56:20;2.28;;;1.00;;
19842;SDS011;10082;51.038;6.992;2022-12-29T08:58:51;4.72;;;1.30;;
19842;SDS011;10082;51.038;6.992;2022-12-29T09:01:20;1.00;;;0.90;;
19842;SDS011;10082;51.038;6.992;2022-12-29T09:03:47;2.55;;;1.00;;
19842;SDS011;10082;51.038;6.992;2022-12-29T09:06:18;2.40;;;1.15;;
19842;SDS011;10082;51.038;6.992;2022-12-29T09:08:45;2.95;;;1.10;;
19842;SDS011;10082;51.038;6.992;2022-12-29T09:11:15;2.80;;;1.17;;
19842;SDS011;10082;51.038;6.992;2022-12-29T09:13:43;2.45;;;0.90;;
19842;SDS011;10082;51.038;6.992;2022-12-29T09:16:11;2.78;;;1.15;;
19842;SDS011;10082;51.038;6.992;2022-12-29T09:18:39;2.28;;;0.98;;
19842;SDS011;10082;51.038;6.992;2022-12-29T09:21:06;2.78;;;1.10;;
19842;SDS011;10082;51.038;6.992;2022-12-29T09:23:34;3.40;;;1.13;;
19842;SDS011;10082;51.038;6.992;2022-12-29T09:26:01;3.42;;;1.00;;
19842;SDS011;10082;51.038;6.992;2022-12-29T09:28:30;3.83;;;1.23;;
19842;SDS011;10082;51.038;6.992;2022-12-29T09:30:58;2.75;;;1.00;;
19842;SDS011;10082;51.038;6.992;2022-12-29T09:33:24;2.58;;;1.20;;
19842;SDS011;10082;51.038;6.992;2022-12-29T09:35:53;2.65;;;1.00;;
19842;SDS011;10082;51.038;6.992;2022-12-29T09:38:21;4.25;;;1.10;;
19842;SDS011;10082;51.038;6.992;2022-12-29T09:40:49;2.47;;;1.10;;
19842;SDS011;10082;51.038;6.992;2022-12-29T09:43:22;3.28;;;1.23;;
19842;SDS011;10082;51.038;6.992;2022-12-29T09:46:11;4.30;;;1.33;;
19842;SDS011;10082;51.038;6.992;2022-12-29T09:48:46;4.53;;;1.50;;
19842;SDS011;10082;51.038;6.992;2022-12-29T09:51:19;4.22;;;1.30;;
19842;SDS011;10082;51.038;6.992;2022-12-29T09:53:51;3.38;;;1.13;;
19842;SDS011;10082;51.038;6.992;2022-12-29T09:56:23;2.65;;;1.35;;
19842;SDS011;10082;51.038;6.992;2022-12-29T09:58:54;4.30;;;1.58;;
19842;SDS011;10082;51.038;6.992;2022-12-29T10:01:27;3.97;;;1.27;;
19842;SDS011;10082;51.038;6.992;2022-12-29T10:03:57;2.92;;;1.08;;
19842;SDS011;10082;51.038;6.992;2022-12-29T10:06:31;4.05;;;1.23;;
19842;SDS011;10082;51.038;6.992;2022-12-29T10:09:08;4.82;;;1.50;;
19842;SDS011;10082;51.038;6.992;2022-12-29T10:11:52;4.65;;;1.48;;
19842;SDS011;10082;51.038;6.992;2022-12-29T10:14:35;3.50;;;1.20;;
19842;SDS011;10082;51.038;6.992;2022-12-29T10:17:18;2.88;;;1.30;;
19842;SDS011;10082;51.038;6.992;2022-12-29T10:20:10;2.70;;;0.98;;
19842;SDS011;10082;51.038;6.992;2022-12-29T10:22:49;5.88;;;1.20;;
19842;SDS011;10082;51.038;6.992;2022-12-29T10:25:31;4.80;;;1.23;;
19842;SDS011;10082;51.038;6.992;2022-12-29T10:28:14;4.55;;;1.33;;
19842;SDS011;10082;51.038;6.992;2022-12-29T10:30:47;3.60;;;1.40;;
19842;SDS011;10082;51.038;6.992;2022-12-29T10:33:18;4.40;;;1.30;;
19842;SDS011;10082;51.038;6.992;2022-12-29T10:35:49;4.18;;;1.23;;
19842;SDS011;10082;51.038;6.992;2022-12-29T10:38:20;4.50;;;1.50;;
19842;SDS011;10082;51.038;6.992;2022-12-29T10:40:53;4.88;;;1.33;;
19842;SDS011;10082;51.038;6.992;2022-12-29T10:43:25;4.10;;;1.30;;
19842;SDS011;10082;51.038;6.992;2022-12-29T10:45:56;2.80;;;1.15;;
19842;SDS011;10082;51.038;6.992;2022-12-29T10:48:27;2.55;;;1.05;;
19842;SDS011;10082;51.038;6.992;2022-12-29T10:50:57;4.13;;;1.25;;
19842;SDS011;10082;51.038;6.992;2022-12-29T10:53:29;3.17;;;1.17;;
19842;SDS011;10082;51.038;6.992;2022-12-29T10:56:01;2.95;;;1.40;;
19842;SDS011;10082;51.038;6.992;2022-12-29T10:58:36;4.50;;;1.67;;
19842;SDS011;10082;51.038;6.992;2022-12-29T11:01:07;3.17;;;1.00;;
19842;SDS011;10082;51.038;6.992;2022-12-29T11:03:46;2.67;;;0.90;;
19842;SDS011;10082;51.038;6.992;2022-12-29T11:06:24;2.47;;;1.13;;
19842;SDS011;10082;51.038;6.992;2022-12-29T11:08:55;2.90;;;1.30;;
19842;SDS011;10082;51.038;6.992;2022-12-29T11:11:25;3.90;;;1.20;;
19842;SDS011;10082;51.038;6.992;2022-12-29T11:13:58;4.10;;;0.93;;
19842;SDS011;10082;51.038;6.992;2022-12-29T11:16:32;3.85;;;1.10;;
19842;SDS011;10082;51.038;6.992;2022-12-29T11:19:01;3.85;;;1.25;;
19842;SDS011;10082;51.038;6.992;2022-12-29T11:21:33;3.70;;;1.27;;
19842;SDS011;10082;51.038;6.992;2022-12-29T11:24:08;5.53;;;1.17;;
19842;SDS011;10082;51.038;6.992;2022-12-29T11:26:46;1.90;;;0.95;;
19842;SDS011;10082;51.038;6.992;2022-12-29T11:29:22;4.35;;;1.27;;
19842;SDS011;10082;51.038;6.992;2022-12-29T11:31:53;2.92;;;1.48;;
19842;SDS011;10082;51.038;6.992;2022-12-29T11:34:23;5.13;;;1.50;;
19842;SDS011;10082;51.038;6.992;2022-12-29T11:36:53;4.03;;;1.30;;
19842;SDS011;10082;51.038;6.992;2022-12-29T11:39:29;1.60;;;1.10;;
19842;SDS011;10082;51.038;6.992;2022-12-29T11:42:00;3.63;;;1.35;;
19842;SDS011;10082;51.038;6.992;2022-12-29T11:44:29;2.88;;;1.10;;
19842;SDS011;10082;51.038;6.992;2022-12-29T11:47:05;2.35;;;1.10;;
19842;SDS011;10082;51.038;6.992;2022-12-29T11:49:35;3.08;;;1.20;;
19842;SDS011;10082;51.038;6.992;2022-12-29T11:52:02;6.55;;;1.85;;
19842;SDS011;10082;51.038;6.992;2022-12-29T11:54:31;5.38;;;1.38;;
19842;SDS011;10082;51.038;6.992;2022-12-29T11:57:08;5.35;;;1.50;;
19842;SDS011;10082;51.038;6.992;2022-12-29T11:59:42;5.85;;;1.20;;
19842;SDS011;10082;51.038;6.992;2022-12-29T12:02:20;4.28;;;1.30;;
19842;SDS011;10082;51.038;6.992;2022-12-29T12:04:54;5.05;;;1.58;;
19842;SDS011;10082;51.038;6.992;2022-12-29T12:07:31;5.38;;;1.20;;
19842;SDS011;10082;51.038;6.992;2022-12-29T12:10:06;3.97;;;1.30;;
19842;SDS011;10082;51.038;6.992;2022-12-29T12:12:44;2.90;;;1.50;;
19842;SDS011;10082;51.038;6.992;2022-12-29T12:15:17;4.57;;;1.20;;
19842;SDS011;10082;51.038;6.992;2022-12-29T12:17:56;6.63;;;1.70;;
19842;SDS011;10082;51.038;6.992;2022-12-29T12:20:32;4.63;;;1.25;;
19842;SDS011;10082;51.038;6.992;2022-12-29T12:23:07;4.25;;;1.30;;
19842;SDS011;10082;51.038;6.992;2022-12-29T12:25:46;3.95;;;1.27;;
19842;SDS011;10082;51.038;6.992;2022-12-29T12:28:24;5.95;;;1.23;;
19842;SDS011;10082;51.038;6.992;2022-12-29T12:30:59;2.65;;;1.27;;
19842;SDS011;10082;51.038;6.992;2022-12-29T12:33:33;3.95;;;1.40;;
19842;SDS011;10082;51.038;6.992;2022-12-29T12:36:18;3.80;;;1.35;;
19842;SDS011;10082;51.038;6.992;2022-12-29T12:38:57;4.65;;;1.35;;
19842;SDS011;10082;51.038;6.992;2022-12-29T12:41:35;5.05;;;1.52;;
19842;SDS011;10082;51.038;6.992;2022-12-29T12:44:17;5.22;;;1.38;;
19842;SDS011;10082;51.038;6.992;2022-12-29T12:46:54;4.82;;;1.30;;
19842;SDS011;10082;51.038;6.992;2022-12-29T12:52:52;3.78;;;1.48;;
19842;SDS011;10082;51.038;6.992;2022-12-29T12:55:49;4.97;;;1.70;;
19842;SDS011;10082;51.038;6.992;2022-12-29T12:58:28;7.00;;;1.40;;
19842;SDS011;10082;51.038;6.992;2022-12-29T13:01:06;4.38;;;1.27;;
19842;SDS011;10082;51.038;6.992;2022-12-29T13:03:50;3.72;;;1.52;;
19842;SDS011;10082;51.038;6.992;2022-12-29T13:06:33;3.88;;;1.30;;
19842;SDS011;10082;51.038;6.992;2022-12-29T13:12:03;3.83;;;0.98;;
19842;SDS011;10082;51.038;6.992;2022-12-29T13:14:46;2.95;;;1.27;;
19842;SDS011;10082;51.038;6.992;2022-12-29T13:17:25;5.43;;;1.33;;
19842;SDS011;10082;51.038;6.992;2022-12-29T13:19:59;3.47;;;1.20;;
19842;SDS011;10082;51.038;6.992;2022-12-29T13:22:37;4.65;;;1.30;;
19842;SDS011;10082;51.038;6.992;2022-12-29T13:28:00;4.40;;;1.30;;
19842;SDS011;10082;51.038;6.992;2022-12-29T13:30:33;3.88;;;1.27;;
19842;SDS011;10082;51.038;6.992;2022-12-29T13:33:10;6.28;;;1.40;;
19842;SDS011;10082;51.038;6.992;2022-12-29T13:35:59;6.57;;;1.55;;
19842;SDS011;10082;51.038;6.992;2022-12-29T13:38:34;4.57;;;1.23;;
19842;SDS011;10082;51.038;6.992;2022-12-29T13:41:05;7.30;;;1.73;;
19842;SDS011;10082;51.038;6.992;2022-12-29T13:43:37;5.60;;;1.30;;
19842;SDS011;10082;51.038;6.992;2022-12-29T13:46:07;3.60;;;1.55;;
19842;SDS011;10082;51.038;6.992;2022-12-29T13:48:39;5.20;;;1.55;;
19842;SDS011;10082;51.038;6.992;2022-12-29T13:51:10;6.88;;;1.85;;
19842;SDS011;10082;51.038;6.992;2022-12-29T13:53:44;5.07;;;1.55;;
19842;SDS011;10082;51.038;6.992;2022-12-29T13:56:26;6.40;;;1.65;;
19842;SDS011;10082;51.038;6.992;2022-12-29T13:59:10;4.97;;;1.55;;
19842;SDS011;10082;51.038;6.992;2022-12-29T14:01:46;1.88;;;1.02;;
19842;SDS011;10082;51.038;6.992;2022-12-29T14:04:21;5.72;;;1.67;;
19842;SDS011;10082;51.038;6.992;2022-12-29T14:06:58;4.88;;;1.10;;
19842;SDS011;10082;51.038;6.992;2022-12-29T14:09:37;3.35;;;1.35;;
19842;SDS011;10082;51.038;6.992;2022-12-29T14:12:18;2.78;;;1.23;;
19842;SDS011;10082;51.038;6.992;2022-12-29T14:14:47;3.55;;;1.13;;
19842;SDS011;10082;51.038;6.992;2022-12-29T14:17:16;3.63;;;1.25;;
19842;SDS011;10082;51.038;6.992;2022-12-29T14:19:46;3.33;;;1.50;;
19842;SDS011;10082;51.038;6.992;2022-12-29T14:22:23;3.15;;;1.15;;
19842;SDS011;10082;51.038;6.992;2022-12-29T14:24:52;3.38;;;1.17;;
19842;SDS011;10082;51.038;6.992;2022-12-29T14:33:15;3.35;;;1.33;;
19842;SDS011;10082;51.038;6.992;2022-12-29T14:35:44;1.83;;;0.90;;
19842;SDS011;10082;51.038;6.992;2022-12-29T14:38:15;2.40;;;1.10;;
19842;SDS011;10082;51.038;6.992;2022-12-29T14:40:45;2.33;;;1.08;;
19842;SDS011;10082;51.038;6.992;2022-12-29T14:43:18;3.20;;;1.10;;
19842;SDS011;10082;51.038;6.992;2022-12-29T14:45:52;2.95;;;1.08;;
19842;SDS011;10082;51.038;6.992;2022-12-29T14:51:20;3.90;;;1.15;;
19842;SDS011;10082;51.038;6.992;2022-12-29T14:53:55;3.88;;;1.30;;
19842;SDS011;10082;51.038;6.992;2022-12-29T14:56:26;3.17;;;1.13;;
19842;SDS011;10082;51.038;6.992;2022-12-29T14:58:56;3.75;;;1.20;;
19842;SDS011;10082;51.038;6.992;2022-12-29T15:01:33;3.17;;;1.15;;
19842;SDS011;10082;51.038;6.992;2022-12-29T15:04:06;3.28;;;1.30;;
19842;SDS011;10082;51.038;6.992;2022-12-29T15:06:41;3.10;;;0.90;;
19842;SDS011;10082;51.038;6.992;2022-12-29T15:09:12;2.53;;;1.10;;
19842;SDS011;10082;51.038;6.992;2022-12-29T15:11:51;3.28;;;1.20;;
19842;SDS011;10082;51.038;6.992;2022-12-29T15:14:31;3.88;;;1.30;;
19842;SDS011;10082;51.038;6.992;2022-12-29T15:16:59;3.45;;;1.20;;
19842;SDS011;10082;51.038;6.992;2022-12-29T15:19:27;3.72;;;1.20;;
19842;SDS011;10082;51.038;6.992;2022-12-29T15:21:54;2.42;;;1.20;;
19842;SDS011;10082;51.038;6.992;2022-12-29T15:24:23;2.45;;;1.38;;
19842;SDS011;10082;51.038;6.992;2022-12-29T15:26:52;4.07;;;1.48;;
19842;SDS011;10082;51.038;6.992;2022-12-29T15:29:28;4.45;;;1.65;;
19842;SDS011;10082;51.038;6.992;2022-12-29T15:32:11;3.88;;;1.20;;
19842;SDS011;10082;51.038;6.992;2022-12-29T15:34:44;2.97;;;1.30;;
19842;SDS011;10082;51.038;6.992;2022-12-29T15:37:15;5.25;;;1.50;;
19842;SDS011;10082;51.038;6.992;2022-12-29T15:39:44;2.90;;;1.00;;
19842;SDS011;10082;51.038;6.992;2022-12-29T15:42:19;3.30;;;1.42;;
19842;SDS011;10082;51.038;6.992;2022-12-29T15:44:52;4.57;;;1.40;;